createdAt,value
2017-10-19T00:02:40.990Z,81.30
2017-10-19T00:05:42.439Z,80.90
2017-10-19T00:08:43.896Z,80.90
2017-10-19T00:11:46.144Z,82.00
2017-10-19T00:14:47.553Z,81.90
2017-10-19T00:17:49.041Z,81.00
2017-10-19T00:20:50.470Z,81.10
2017-10-19T00:23:51.909Z,82.90
2017-10-19T00:26:53.376Z,81.00
2017-10-19T00:29:54.799Z,81.50
2017-10-19T00:32:57.006Z,82.40
2017-10-19T00:35:58.411Z,81.00
2017-10-19T00:39:00.620Z,82.40
2017-10-19T00:42:02.001Z,81.80
2017-10-19T00:45:03.516Z,81.10
2017-10-19T00:48:04.954Z,82.30
2017-10-19T00:51:06.398Z,81.50
2017-10-19T00:54:07.817Z,81.80
2017-10-19T00:57:09.306Z,81.20
2017-10-19T01:00:10.758Z,82.20
2017-10-19T01:03:12.909Z,82.90
2017-10-19T01:06:15.072Z,83.10
2017-10-19T01:09:16.473Z,81.80
2017-10-19T01:12:17.901Z,81.20
2017-10-19T01:15:19.262Z,81.20
2017-10-19T01:18:20.666Z,82.00
2017-10-19T01:21:22.611Z,82.40
2017-10-19T01:24:24.053Z,81.10
2017-10-19T01:27:25.494Z,82.30
2017-10-19T01:30:26.928Z,81.20
2017-10-19T01:33:28.396Z,81.00
2017-10-19T01:36:29.793Z,80.20
2017-10-19T01:39:31.180Z,81.70
2017-10-19T01:42:32.585Z,81.00
2017-10-19T01:45:34.006Z,81.50
2017-10-19T01:48:35.494Z,81.70
2017-10-19T01:51:37.653Z,82.10
2017-10-19T01:54:39.059Z,80.90
2017-10-19T01:57:40.435Z,81.30
2017-10-19T02:00:42.997Z,80.20
2017-10-19T02:03:44.380Z,81.30
2017-10-19T02:06:45.825Z,81.50
2017-10-19T02:09:47.279Z,81.10
2017-10-19T02:12:48.652Z,81.70
2017-10-19T02:15:50.089Z,82.20
2017-10-19T02:18:51.546Z,81.90
2017-10-19T02:21:52.985Z,82.70
2017-10-19T02:24:54.360Z,83.10
2017-10-19T02:27:55.780Z,82.10
2017-10-19T02:30:57.144Z,83.00
2017-10-19T02:33:58.518Z,82.60
2017-10-19T02:36:59.932Z,82.30
2017-10-19T02:40:01.298Z,82.90
2017-10-19T02:43:02.696Z,83.10
2017-10-19T02:46:10.097Z,83.60
2017-10-19T02:49:12.237Z,83.40
2017-10-19T02:52:13.627Z,82.60
2017-10-19T02:55:15.108Z,83.30
2017-10-19T02:58:16.576Z,82.50
2017-10-19T03:01:17.960Z,82.00
2017-10-19T03:04:19.345Z,82.00
2017-10-19T03:07:20.709Z,83.10
2017-10-19T03:10:22.121Z,83.20
2017-10-19T03:13:24.247Z,83.70
2017-10-19T03:16:25.697Z,83.50
2017-10-19T03:19:27.120Z,84.00
2017-10-19T03:22:28.504Z,83.50
2017-10-19T03:25:29.956Z,83.60
2017-10-19T03:28:31.309Z,83.90
2017-10-19T03:31:32.720Z,83.90
2017-10-19T03:34:34.096Z,82.40
2017-10-19T03:37:35.541Z,83.00
2017-10-19T03:40:36.918Z,81.50
2017-10-19T03:43:38.310Z,82.80
2017-10-19T03:46:40.497Z,83.50
2017-10-19T03:49:41.953Z,82.30
2017-10-19T03:52:43.371Z,83.40
2017-10-19T03:55:45.488Z,83.20
2017-10-19T03:58:46.912Z,81.30
2017-10-19T04:01:48.281Z,81.70
2017-10-19T04:04:49.729Z,82.30
2017-10-19T04:07:51.163Z,81.70
2017-10-19T04:10:52.556Z,82.70
2017-10-19T04:13:53.970Z,82.80
2017-10-19T04:16:56.063Z,82.90
2017-10-19T04:19:57.446Z,81.80
2017-10-19T04:22:58.813Z,82.70
2017-10-19T04:26:00.913Z,83.20
2017-10-19T04:29:02.269Z,82.60
2017-10-19T04:32:03.684Z,81.00
2017-10-19T04:35:05.069Z,82.30
2017-10-19T04:38:06.437Z,82.40
2017-10-19T04:41:08.557Z,82.40
2017-10-19T04:44:10.641Z,82.50
2017-10-19T04:47:12.024Z,81.90
2017-10-19T04:50:14.142Z,82.90
2017-10-19T04:53:16.292Z,83.30
2017-10-19T04:56:17.709Z,81.40
2017-10-19T04:59:19.830Z,83.30
2017-10-19T05:02:21.232Z,82.90
2017-10-19T05:05:22.800Z,82.50
2017-10-19T05:08:24.261Z,82.90
2017-10-19T05:11:25.634Z,82.50
2017-10-19T05:14:27.122Z,81.50
2017-10-19T05:17:28.502Z,81.70
2017-10-19T05:20:29.905Z,81.50
2017-10-19T05:23:32.101Z,83.40
2017-10-19T05:26:33.485Z,81.90
2017-10-19T05:29:34.920Z,82.80
2017-10-19T05:32:36.262Z,82.00
2017-10-19T05:35:37.664Z,82.40
2017-10-19T05:38:39.013Z,82.40
2017-10-19T05:41:40.394Z,82.40
2017-10-19T05:44:48.824Z,81.90
2017-10-19T05:47:50.206Z,82.00
2017-10-19T05:50:51.642Z,82.70
2017-10-19T05:53:53.013Z,83.00
2017-10-19T05:56:54.486Z,83.00
2017-10-19T05:59:55.802Z,82.80
2017-10-19T06:02:57.233Z,81.70
2017-10-19T06:05:58.605Z,82.30
2017-10-19T06:08:59.961Z,82.70
2017-10-19T06:12:01.308Z,83.10
2017-10-19T06:15:02.757Z,82.70
2017-10-19T06:18:04.117Z,82.50
2017-10-19T06:21:05.533Z,82.70
2017-10-19T06:24:06.956Z,82.50
2017-10-19T06:27:09.100Z,83.40
2017-10-19T06:30:10.470Z,83.10
2017-10-19T06:33:12.606Z,82.70
2017-10-19T06:36:14.012Z,82.30
2017-10-19T06:39:16.219Z,83.20
2017-10-19T06:42:17.620Z,82.90
2017-10-19T06:45:19.740Z,83.20
2017-10-19T06:48:21.070Z,83.10
2017-10-19T06:51:22.598Z,83.20
2017-10-19T06:54:24.748Z,83.60
2017-10-19T06:57:26.087Z,83.40
2017-10-19T07:00:27.528Z,82.80
2017-10-19T07:03:29.696Z,83.40
2017-10-19T07:06:31.036Z,83.50
2017-10-19T07:09:32.389Z,83.20
2017-10-19T07:12:34.513Z,83.50
2017-10-19T07:15:36.685Z,83.60
2017-10-19T07:18:38.736Z,83.70
2017-10-19T07:21:40.768Z,91.30
2017-10-19T07:24:42.116Z,91.20
2017-10-19T07:27:43.553Z,77.40
2017-10-19T07:30:44.916Z,78.10
2017-10-19T07:33:46.320Z,79.80
2017-10-19T07:36:48.399Z,81.80
2017-10-19T07:39:49.789Z,81.70
2017-10-19T07:42:51.080Z,82.70
2017-10-19T07:45:53.218Z,83.50
2017-10-19T07:48:54.569Z,83.40
2017-10-19T07:51:56.071Z,83.60
2017-10-19T07:54:57.420Z,83.60
2017-10-19T07:57:58.723Z,83.70
2017-10-19T08:01:00.124Z,85.80
2017-10-19T08:04:01.654Z,80.80
2017-10-19T08:07:03.828Z,83.60
2017-10-19T08:10:05.994Z,84.20
2017-10-19T08:13:08.184Z,84.70
2017-10-19T08:16:09.662Z,83.10
2017-10-19T08:19:11.111Z,83.50
2017-10-19T08:22:12.591Z,83.70
2017-10-19T08:25:14.073Z,83.80
2017-10-19T08:28:16.288Z,83.20
2017-10-19T08:31:17.671Z,81.90
2017-10-19T08:34:19.137Z,82.20
2017-10-19T08:37:20.498Z,83.40
2017-10-19T08:40:22.705Z,83.00
2017-10-19T08:43:24.065Z,81.90
2017-10-19T08:46:25.599Z,83.60
2017-10-19T08:49:27.057Z,81.00
2017-10-19T08:52:28.511Z,81.40
2017-10-19T08:55:30.005Z,81.60
2017-10-19T08:58:31.424Z,80.20
2017-10-19T09:01:32.806Z,81.50
2017-10-19T09:04:34.231Z,80.50
2017-10-19T09:07:35.637Z,80.80
2017-10-19T09:10:37.779Z,82.70
2017-10-19T09:13:39.207Z,82.30
2017-10-19T09:16:41.424Z,83.30
2017-10-19T09:19:43.539Z,83.40
2017-10-19T09:22:44.999Z,82.10
2017-10-19T09:25:46.460Z,82.30
2017-10-19T09:28:47.883Z,81.10
2017-10-19T09:31:49.238Z,81.20
2017-10-19T09:34:50.630Z,81.10
2017-10-19T09:37:52.063Z,81.20
2017-10-19T09:40:53.453Z,80.80
2017-10-19T09:43:55.620Z,83.00
2017-10-19T09:46:57.772Z,81.50
2017-10-19T09:49:59.241Z,80.90
2017-10-19T09:53:00.644Z,81.60
2017-10-19T09:56:02.124Z,81.40
2017-10-19T09:59:03.637Z,81.60
2017-10-19T10:02:05.108Z,81.90
2017-10-19T10:05:06.493Z,81.50
2017-10-19T10:08:07.989Z,82.30
2017-10-19T10:11:09.417Z,79.80
2017-10-19T10:14:11.697Z,80.80
2017-10-19T10:17:13.922Z,80.10
2017-10-19T10:20:15.367Z,78.10
2017-10-19T10:23:16.828Z,80.60
2017-10-19T10:26:18.252Z,80.60
2017-10-19T10:29:19.686Z,78.40
2017-10-19T10:32:21.083Z,77.90
2017-10-19T10:35:23.233Z,79.80
2017-10-19T10:38:24.706Z,78.70
2017-10-19T10:41:26.200Z,76.10
2017-10-19T10:44:28.404Z,77.60
2017-10-19T10:47:29.915Z,76.60
2017-10-19T10:50:32.235Z,79.00
2017-10-19T10:53:33.647Z,78.70
2017-10-19T10:56:35.870Z,77.20
2017-10-19T10:59:37.299Z,75.10
2017-10-19T11:02:38.775Z,74.10
2017-10-19T11:05:40.200Z,73.40
2017-10-19T11:08:41.653Z,71.10
2017-10-19T11:11:43.119Z,70.70
2017-10-19T11:14:44.559Z,73.20
2017-10-19T11:17:45.976Z,73.40
2017-10-19T11:20:48.142Z,77.50
2017-10-19T11:23:49.580Z,77.00
2017-10-19T11:26:51.030Z,74.70
2017-10-19T11:29:52.535Z,72.70
2017-10-19T11:32:53.972Z,72.20
2017-10-19T11:35:55.372Z,77.00
2017-10-19T11:38:56.804Z,72.00
2017-10-19T11:41:58.243Z,75.00
2017-10-19T11:44:59.722Z,72.30
2017-10-19T11:48:01.145Z,73.00
2017-10-19T11:51:02.619Z,70.70
2017-10-19T11:54:04.016Z,75.50
2017-10-19T11:57:05.433Z,75.80
2017-10-19T12:00:06.896Z,68.80
2017-10-19T12:03:08.514Z,68.70
2017-10-19T12:06:09.927Z,71.10
2017-10-19T12:09:12.112Z,68.80
2017-10-19T12:12:13.589Z,67.50
2017-10-19T12:15:15.231Z,68.30
2017-10-19T12:18:16.750Z,67.60
2017-10-19T12:21:19.300Z,68.20
2017-10-19T12:24:20.855Z,68.00
2017-10-19T12:27:22.305Z,68.10
2017-10-19T12:30:23.700Z,70.00
2017-10-19T12:33:25.309Z,70.00
2017-10-19T12:36:26.782Z,73.50
2017-10-19T12:39:28.451Z,72.20
2017-10-19T12:42:30.735Z,73.90
2017-10-19T12:45:32.263Z,72.90
2017-10-19T12:48:33.759Z,67.50
2017-10-19T12:51:35.959Z,70.20
2017-10-19T12:54:37.543Z,69.10
2017-10-19T12:57:39.036Z,68.10
2017-10-19T13:00:41.271Z,72.50
2017-10-19T13:03:42.863Z,70.80
2017-10-19T13:06:45.418Z,68.30
2017-10-19T13:09:48.191Z,70.50
2017-10-19T13:12:50.095Z,69.50
2017-10-19T13:15:51.901Z,67.30
2017-10-19T13:18:53.389Z,72.30
2017-10-19T13:21:55.845Z,68.50
2017-10-19T13:24:58.945Z,73.50
2017-10-19T13:28:00.646Z,72.80
2017-10-19T13:31:02.215Z,66.20
2017-10-19T13:34:03.647Z,66.40
2017-10-19T13:37:05.342Z,65.80
2017-10-19T13:40:06.804Z,68.00
2017-10-19T13:43:08.523Z,65.50
2017-10-19T13:46:10.207Z,69.30
2017-10-19T13:49:11.712Z,67.90
2017-10-19T13:52:13.493Z,67.20
2017-10-19T13:55:15.307Z,66.40
2017-10-19T13:58:16.770Z,69.40
2017-10-19T14:01:18.588Z,73.90
2017-10-19T14:04:20.411Z,68.00
2017-10-19T14:07:22.837Z,69.60
2017-10-19T14:10:24.535Z,69.00
2017-10-19T14:13:26.771Z,70.50
2017-10-19T14:16:28.260Z,69.10
2017-10-19T14:19:30.473Z,69.00
2017-10-19T14:22:31.991Z,68.20
2017-10-19T14:25:34.215Z,69.90
2017-10-19T14:28:35.659Z,68.70
2017-10-19T14:31:37.165Z,69.00
2017-10-19T14:34:39.401Z,70.40
2017-10-19T14:37:40.970Z,69.60
2017-10-19T14:40:43.817Z,69.40
2017-10-19T14:43:45.686Z,69.10
2017-10-19T14:46:47.643Z,69.00
2017-10-19T14:49:50.221Z,68.70
2017-10-19T14:52:52.200Z,68.90
2017-10-19T14:55:59.522Z,71.30
2017-10-19T14:59:01.808Z,71.60
2017-10-19T15:02:07.271Z,72.60
2017-10-19T15:05:26.178Z,72.60
2017-10-19T15:08:27.684Z,74.00
2017-10-19T15:11:30.336Z,73.70
2017-10-19T15:14:34.515Z,74.40
2017-10-19T15:17:39.372Z,75.20
2017-10-19T15:20:41.065Z,72.40
2017-10-19T15:23:42.608Z,72.80
2017-10-19T15:26:44.903Z,74.30
2017-10-19T15:29:46.483Z,73.60
2017-10-19T15:32:48.880Z,74.40
2017-10-19T15:35:50.425Z,72.80
2017-10-19T15:38:52.007Z,75.40
2017-10-19T15:41:53.592Z,74.00
2017-10-19T15:44:56.172Z,77.90
2017-10-19T15:47:58.466Z,79.20
2017-10-19T15:51:16.444Z,77.40
2017-10-19T15:54:18.144Z,78.60
2017-10-19T15:57:19.695Z,76.00
2017-10-19T16:00:22.113Z,81.00
2017-10-19T16:03:23.666Z,80.60
2017-10-19T16:06:25.218Z,80.40
2017-10-19T16:09:26.758Z,80.70
2017-10-19T16:12:28.416Z,79.90
2017-10-19T16:15:31.734Z,79.30
2017-10-19T16:18:35.645Z,79.70
2017-10-19T16:21:37.520Z,78.60
2017-10-19T16:24:40.242Z,79.50
2017-10-19T16:27:43.211Z,78.70
2017-10-19T16:30:44.819Z,78.30
2017-10-19T16:33:46.409Z,80.60
2017-10-19T16:36:49.170Z,79.50
2017-10-19T16:39:51.712Z,76.60
2017-10-19T16:42:57.427Z,79.30
2017-10-19T16:45:58.896Z,79.00
2017-10-19T16:49:00.629Z,78.40
2017-10-19T16:52:02.335Z,77.80
2017-10-19T16:55:04.738Z,78.10
2017-10-19T16:58:08.466Z,77.60
2017-10-19T17:01:11.320Z,78.60
2017-10-19T17:04:13.610Z,78.40
2017-10-19T17:07:15.316Z,77.30
2017-10-19T17:10:17.919Z,77.60
2017-10-19T17:13:21.213Z,78.70
2017-10-19T17:16:24.299Z,77.60
2017-10-19T17:19:27.667Z,77.40
2017-10-19T17:22:30.736Z,76.70
2017-10-19T17:25:33.680Z,77.10
2017-10-19T17:28:36.727Z,78.40
2017-10-19T17:31:39.004Z,76.00
2017-10-19T17:34:41.252Z,75.70
2017-10-19T17:37:44.467Z,76.40
2017-10-19T17:40:48.079Z,75.10
2017-10-19T17:43:51.032Z,75.90
2017-10-19T17:46:54.816Z,76.00
2017-10-19T17:49:57.802Z,75.80
2017-10-19T17:53:00.700Z,73.90
2017-10-19T17:56:03.952Z,75.50
2017-10-19T17:59:05.640Z,75.40
2017-10-19T18:02:10.558Z,75.50
2017-10-19T18:05:13.919Z,75.10
2017-10-19T18:08:18.585Z,76.00
2017-10-19T18:11:20.615Z,75.30
2017-10-19T18:14:22.828Z,76.80
2017-10-19T18:17:25.261Z,75.00
2017-10-19T18:20:26.835Z,74.30
2017-10-19T18:23:28.375Z,74.50
2017-10-19T18:26:29.861Z,75.40
2017-10-19T18:29:31.448Z,75.00
2017-10-19T18:32:32.863Z,74.00
2017-10-19T18:35:34.404Z,74.30
2017-10-19T18:38:35.976Z,75.00
2017-10-19T18:41:37.640Z,74.70
2017-10-19T18:44:39.231Z,73.00
2017-10-19T18:47:40.696Z,73.80
2017-10-19T18:50:42.177Z,74.10
2017-10-19T18:53:43.654Z,75.10
2017-10-19T18:56:45.116Z,74.50
2017-10-19T18:59:46.556Z,73.80
2017-10-19T19:02:48.831Z,74.70
2017-10-19T19:05:50.229Z,73.90
2017-10-19T19:08:52.240Z,74.50
2017-10-19T19:11:54.419Z,74.90
2017-10-19T19:14:57.146Z,75.70
2017-10-19T19:17:59.084Z,74.90
2017-10-19T19:21:01.219Z,75.80
2017-10-19T19:24:03.222Z,75.60
2017-10-19T19:27:05.176Z,74.60
2017-10-19T19:30:07.164Z,75.00
2017-10-19T19:33:10.293Z,74.40
2017-10-19T19:36:13.089Z,74.90
2017-10-19T19:39:15.173Z,73.90
2017-10-19T19:42:17.174Z,74.50
2017-10-19T19:45:18.923Z,74.00
2017-10-19T19:48:20.367Z,74.50
2017-10-19T19:51:22.631Z,75.00
2017-10-19T19:54:24.805Z,75.00
2017-10-19T19:57:27.391Z,76.10
2017-10-19T20:00:29.378Z,75.60
2017-10-19T20:03:30.910Z,76.50
2017-10-19T20:06:32.504Z,75.40
2017-10-19T20:17:22.081Z,76.40
2017-10-19T20:20:24.236Z,76.50
2017-10-19T20:23:26.381Z,75.90
2017-10-19T20:26:27.855Z,75.60
2017-10-19T20:29:29.330Z,75.10
2017-10-19T20:32:30.752Z,76.60
2017-10-19T20:35:32.196Z,74.30
2017-10-19T20:38:33.553Z,75.20
2017-10-19T20:41:34.989Z,75.60
2017-10-19T20:44:36.384Z,74.80
2017-10-19T20:47:38.557Z,76.10
2017-10-19T20:50:40.897Z,75.00
2017-10-19T20:53:42.314Z,74.50
2017-10-19T20:56:43.770Z,76.00
2017-10-19T20:59:45.152Z,76.70
2017-10-19T21:02:46.528Z,76.90
2017-10-19T21:05:49.670Z,75.20
2017-10-19T21:08:51.129Z,73.70
2017-10-19T21:11:52.509Z,76.10
2017-10-19T21:14:53.886Z,75.70
2017-10-19T21:17:55.989Z,76.10
2017-10-19T21:20:57.395Z,75.70
2017-10-19T21:23:59.572Z,76.50
2017-10-19T21:27:01.694Z,75.30
2017-10-19T21:30:03.141Z,74.40
2017-10-19T21:33:05.294Z,74.90
2017-10-19T21:36:06.678Z,74.00
2017-10-19T21:39:08.061Z,73.60
2017-10-19T21:42:10.206Z,72.30
2017-10-19T21:45:11.615Z,71.20
2017-10-19T21:48:13.099Z,71.50
2017-10-19T21:51:15.287Z,72.00
2017-10-19T21:54:16.684Z,71.30
2017-10-19T21:57:18.091Z,70.10
2017-10-19T22:00:19.465Z,70.30
2017-10-19T22:03:20.987Z,70.50
2017-10-19T22:06:23.876Z,70.00
2017-10-19T22:09:25.274Z,69.80
2017-10-19T22:12:26.649Z,69.80
2017-10-19T22:15:28.051Z,70.00
2017-10-19T22:18:30.280Z,69.90
2017-10-19T22:21:31.642Z,69.50
2017-10-19T22:24:33.033Z,69.40
2017-10-19T22:27:34.385Z,69.20
2017-10-19T22:30:36.554Z,69.80
2017-10-19T22:33:38.651Z,69.40
2017-10-19T22:36:40.049Z,68.40
2017-10-19T22:39:41.390Z,68.70
2017-10-19T22:42:42.789Z,69.10
2017-10-19T22:45:44.245Z,67.20
2017-10-19T22:48:45.641Z,67.80
2017-10-19T22:51:47.088Z,67.50
2017-10-19T22:54:48.479Z,67.60
2017-10-19T22:57:50.604Z,67.70
2017-10-19T23:00:51.954Z,67.50
2017-10-19T23:03:53.329Z,67.00
2017-10-19T23:06:54.657Z,66.60
2017-10-19T23:09:56.016Z,66.50
2017-10-19T23:12:57.436Z,66.50
2017-10-19T23:15:58.790Z,66.50
2017-10-19T23:19:00.209Z,65.80
2017-10-19T23:22:01.608Z,65.40
2017-10-19T23:25:03.020Z,64.50
2017-10-19T23:28:04.380Z,64.60
2017-10-19T23:31:05.760Z,64.50
2017-10-19T23:34:07.148Z,65.60
2017-10-19T23:37:09.327Z,65.50
2017-10-19T23:40:11.478Z,65.00
2017-10-19T23:43:13.561Z,64.50
2017-10-19T23:46:15.740Z,64.10
2017-10-19T23:49:17.103Z,63.60
2017-10-19T23:52:18.547Z,63.60
2017-10-19T23:55:19.899Z,64.20
2017-10-19T23:58:21.297Z,63.80
